createdAt,value
2022-10-26T00:01:38.445Z,7.77
2022-10-26T00:04:26.195Z,7.74
2022-10-26T00:07:13.690Z,7.72
2022-10-26T00:10:01.141Z,7.68
2022-10-26T00:12:52.025Z,7.68
2022-10-26T00:15:42.858Z,7.63
2022-10-26T00:18:30.803Z,7.62
2022-10-26T00:21:19.411Z,7.59
2022-10-26T00:24:07.597Z,7.57
2022-10-26T00:26:55.057Z,7.57
2022-10-26T00:29:43.864Z,7.55
2022-10-26T00:32:31.284Z,7.52
2022-10-26T00:35:24.125Z,7.51
2022-10-26T00:38:16.383Z,7.49
2022-10-26T00:41:04.096Z,7.48
2022-10-26T00:43:52.521Z,7.47
2022-10-26T00:46:41.296Z,7.46
2022-10-26T00:49:29.091Z,7.46
2022-10-26T00:52:19.381Z,7.48
2022-10-26T00:55:09.761Z,7.48
2022-10-26T00:57:57.439Z,7.50
2022-10-26T01:00:46.034Z,7.52
2022-10-26T01:03:37.900Z,7.56
2022-10-26T01:06:25.413Z,7.60
2022-10-26T01:09:14.261Z,7.65
2022-10-26T01:12:01.810Z,7.72
2022-10-26T01:14:49.721Z,7.89
2022-10-26T01:17:55.493Z,7.89
2022-10-26T01:21:37.157Z,7.93
2022-10-26T01:24:59.233Z,8.00
2022-10-26T01:27:51.087Z,8.11
2022-10-26T01:30:45.166Z,8.06
2022-10-26T01:33:41.095Z,8.15
2022-10-26T01:36:37.351Z,8.22
2022-10-26T01:39:30.972Z,8.21
2022-10-26T01:42:23.269Z,8.26
2022-10-26T01:45:15.909Z,8.25
2022-10-26T01:48:08.016Z,8.30
2022-10-26T01:50:59.333Z,8.21
2022-10-26T01:53:47.845Z,8.24
2022-10-26T01:56:41.022Z,8.28
2022-10-26T01:59:47.212Z,8.38
2022-10-26T02:03:04.413Z,8.43
2022-10-26T02:06:13.333Z,8.42
2022-10-26T02:09:20.445Z,8.38
2022-10-26T02:12:18.833Z,8.34
2022-10-26T02:15:14.464Z,8.47
2022-10-26T02:18:11.351Z,8.59
2022-10-26T02:21:10.483Z,8.64
2022-10-26T02:24:00.563Z,8.72
2022-10-26T02:26:53.886Z,8.73
2022-10-26T02:29:46.796Z,8.73
2022-10-26T02:32:42.347Z,8.70
2022-10-26T02:35:36.033Z,8.71
2022-10-26T02:38:27.753Z,8.58
2022-10-26T02:41:19.288Z,8.66
2022-10-26T02:44:17.926Z,8.71
2022-10-26T02:47:05.832Z,8.68
2022-10-26T02:49:55.057Z,8.72
2022-10-26T02:52:55.780Z,8.76
2022-10-26T02:55:51.786Z,8.72
2022-10-26T02:58:46.580Z,8.68
2022-10-26T03:01:36.796Z,8.71
2022-10-26T03:04:31.643Z,8.84
2022-10-26T03:07:23.935Z,8.83
2022-10-26T03:10:12.614Z,8.86
2022-10-26T03:13:01.870Z,8.96
2022-10-26T03:15:49.986Z,9.02
2022-10-26T03:18:38.537Z,9.02
2022-10-26T03:21:26.350Z,8.97
2022-10-26T03:24:13.944Z,8.98
2022-10-26T03:27:02.408Z,9.01
2022-10-26T03:29:51.827Z,9.03
2022-10-26T03:32:39.798Z,9.10
2022-10-26T03:35:30.313Z,9.12
2022-10-26T03:38:18.013Z,9.07
2022-10-26T03:41:05.613Z,9.08
2022-10-26T03:43:53.150Z,9.13
2022-10-26T03:46:42.143Z,9.13
2022-10-26T03:49:29.633Z,9.08
2022-10-26T03:52:17.153Z,9.14
2022-10-26T03:55:09.105Z,9.13
2022-10-26T03:57:56.733Z,9.25
2022-10-26T04:00:48.030Z,9.13
2022-10-26T04:03:37.226Z,9.17
2022-10-26T04:06:24.631Z,9.22
2022-10-26T04:09:12.119Z,9.26
2022-10-26T04:12:00.057Z,9.27
2022-10-26T04:14:48.838Z,9.35
2022-10-26T04:17:37.183Z,9.37
2022-10-26T04:20:27.026Z,9.38
2022-10-26T04:23:17.545Z,9.42
2022-10-26T04:26:09.504Z,9.32
2022-10-26T04:28:57.389Z,9.43
2022-10-26T04:31:44.938Z,9.39
2022-10-26T04:34:33.656Z,9.48
2022-10-26T04:37:22.978Z,9.50
2022-10-26T04:40:11.759Z,9.48
2022-10-26T04:42:59.921Z,9.57
2022-10-26T04:45:47.739Z,9.54
2022-10-26T04:48:35.371Z,9.59
2022-10-26T04:51:22.894Z,9.58
2022-10-26T04:54:14.961Z,9.56
2022-10-26T04:57:02.806Z,9.51
2022-10-26T04:59:50.377Z,9.64
2022-10-26T05:02:38.987Z,9.54
2022-10-26T05:05:26.647Z,9.50
2022-10-26T05:08:14.562Z,9.54
2022-10-26T05:11:03.549Z,9.61
2022-10-26T05:13:50.955Z,9.74
2022-10-26T05:16:38.435Z,9.73
2022-10-26T05:19:25.801Z,9.82
2022-10-26T05:22:13.322Z,9.78
2022-10-26T05:25:00.698Z,9.86
2022-10-26T05:27:49.819Z,9.86
2022-10-26T05:30:37.582Z,9.96
2022-10-26T05:33:25.348Z,9.92
2022-10-26T05:36:13.085Z,9.84
2022-10-26T05:39:01.323Z,9.94
2022-10-26T05:41:48.802Z,10.00
2022-10-26T05:44:37.875Z,10.03
2022-10-26T05:47:25.590Z,10.06
2022-10-26T05:50:14.948Z,10.05
2022-10-26T05:53:03.213Z,10.11
2022-10-26T05:55:51.988Z,10.14
2022-10-26T05:58:40.360Z,10.06
2022-10-26T06:01:44.475Z,9.93
2022-10-26T06:04:39.163Z,9.99
2022-10-26T06:07:27.534Z,10.02
2022-10-26T06:10:16.417Z,10.07
2022-10-26T06:13:04.746Z,10.16
2022-10-26T06:16:31.215Z,10.21
2022-10-26T06:19:41.148Z,10.34
2022-10-26T06:22:48.563Z,10.28
2022-10-26T06:25:48.850Z,10.21
2022-10-26T06:28:51.148Z,10.20
2022-10-26T06:31:40.137Z,10.19
2022-10-26T06:34:33.342Z,10.13
2022-10-26T06:37:22.259Z,10.05
2022-10-26T06:40:12.875Z,10.08
2022-10-26T06:43:01.354Z,10.08
2022-10-26T06:46:00.764Z,10.17
2022-10-26T06:49:01.832Z,10.20
2022-10-26T06:52:02.640Z,10.29
2022-10-26T06:54:54.373Z,10.33
2022-10-26T06:57:45.512Z,10.34
2022-10-26T07:00:35.136Z,10.51
2022-10-26T07:03:23.091Z,10.43
2022-10-26T07:06:12.310Z,10.65
2022-10-26T07:09:00.262Z,10.77
2022-10-26T07:11:47.785Z,10.92
2022-10-26T07:14:35.430Z,11.06
2022-10-26T07:17:23.424Z,11.17
2022-10-26T07:20:12.334Z,11.32
2022-10-26T07:23:01.621Z,11.34
2022-10-26T07:25:49.579Z,11.60
2022-10-26T07:28:38.169Z,11.71
2022-10-26T07:31:26.511Z,11.81
2022-10-26T07:34:14.170Z,11.84
2022-10-26T07:37:02.038Z,11.90
2022-10-26T07:39:51.621Z,11.94
2022-10-26T07:42:41.963Z,12.00
2022-10-26T07:45:32.696Z,12.06
2022-10-26T07:48:20.853Z,12.13
2022-10-26T07:51:09.486Z,12.13
2022-10-26T07:53:57.740Z,12.11
2022-10-26T07:56:46.306Z,12.18
2022-10-26T07:59:34.152Z,12.11
2022-10-26T08:02:21.954Z,12.24
2022-10-26T08:05:10.302Z,12.33
2022-10-26T08:07:57.695Z,12.38
2022-10-26T08:10:45.976Z,12.44
2022-10-26T08:13:36.183Z,12.48
2022-10-26T08:16:24.718Z,12.49
2022-10-26T08:19:12.455Z,12.53
2022-10-26T08:22:00.602Z,12.53
2022-10-26T08:24:48.482Z,12.62
2022-10-26T08:27:36.671Z,12.66
2022-10-26T08:30:25.633Z,12.72
2022-10-26T08:33:13.488Z,12.75
2022-10-26T08:36:03.427Z,12.82
2022-10-26T08:38:52.739Z,12.87
2022-10-26T08:41:46.317Z,13.00
2022-10-26T08:44:43.502Z,13.06
2022-10-26T08:47:38.791Z,13.17
2022-10-26T08:50:33.167Z,13.25
2022-10-26T08:53:30.791Z,13.35
2022-10-26T08:56:24.598Z,13.39
2022-10-26T08:59:25.786Z,13.56
2022-10-26T09:02:15.141Z,13.62
2022-10-26T09:05:05.639Z,13.70
2022-10-26T09:08:05.549Z,13.73
2022-10-26T09:11:07.365Z,13.82
2022-10-26T09:14:12.102Z,13.87
2022-10-26T09:17:12.840Z,13.95
2022-10-26T09:20:37.152Z,14.04
2022-10-26T09:23:51.105Z,14.07
2022-10-26T09:26:54.924Z,14.11
2022-10-26T09:29:44.444Z,14.17
2022-10-26T09:32:42.677Z,14.25
2022-10-26T09:35:45.680Z,14.32
2022-10-26T09:38:38.021Z,14.43
2022-10-26T09:41:34.472Z,14.66
2022-10-26T09:44:33.110Z,14.70
2022-10-26T09:47:37.583Z,14.71
2022-10-26T09:50:34.161Z,14.77
2022-10-26T09:53:21.815Z,14.86
2022-10-26T09:56:13.338Z,14.91
2022-10-26T09:59:07.106Z,14.93
2022-10-26T10:01:54.892Z,14.82
2022-10-26T10:04:48.962Z,14.93
2022-10-26T10:07:40.065Z,14.95
2022-10-26T10:10:27.890Z,15.06
2022-10-26T10:13:19.440Z,15.14
2022-10-26T10:16:13.827Z,15.28
2022-10-26T10:19:02.831Z,15.43
2022-10-26T10:21:53.772Z,15.35
2022-10-26T10:24:53.621Z,15.40
2022-10-26T10:27:55.280Z,15.54
2022-10-26T10:30:57.422Z,15.66
2022-10-26T10:33:45.856Z,15.84
2022-10-26T10:36:35.113Z,15.95
2022-10-26T10:39:39.474Z,16.04
2022-10-26T10:42:36.695Z,16.25
2022-10-26T10:45:32.003Z,16.31
2022-10-26T10:48:23.968Z,16.49
2022-10-26T10:51:13.067Z,16.60
2022-10-26T10:54:03.957Z,16.60
2022-10-26T10:56:55.874Z,16.74
2022-10-26T11:00:02.377Z,16.79
2022-10-26T11:03:19.209Z,16.84
2022-10-26T11:06:18.280Z,16.92
2022-10-26T11:09:11.684Z,17.02
2022-10-26T11:12:05.072Z,17.08
2022-10-26T11:15:01.730Z,17.23
2022-10-26T11:18:07.745Z,17.27
2022-10-26T11:21:04.052Z,17.33
2022-10-26T11:23:59.602Z,17.43
2022-10-26T11:26:55.600Z,17.40
2022-10-26T11:29:52.478Z,17.42
2022-10-26T11:32:49.079Z,17.51
2022-10-26T11:35:45.508Z,17.58
2022-10-26T11:38:46.693Z,17.60
2022-10-26T11:41:52.655Z,17.55
2022-10-26T11:44:52.927Z,17.44
2022-10-26T11:47:53.151Z,17.58
2022-10-26T11:50:47.258Z,17.60
2022-10-26T11:53:43.243Z,17.31
2022-10-26T11:56:36.850Z,17.18
2022-10-26T11:59:32.276Z,17.53
2022-10-26T12:02:23.586Z,17.65
2022-10-26T12:05:23.777Z,17.70
2022-10-26T12:08:20.007Z,17.71
2022-10-26T12:11:22.681Z,17.73
2022-10-26T12:14:23.447Z,17.76
2022-10-26T12:17:19.761Z,17.82
2022-10-26T12:20:52.268Z,17.67
2022-10-26T12:23:56.364Z,17.55
2022-10-26T12:26:54.246Z,17.70
2022-10-26T12:29:49.375Z,17.66
2022-10-26T12:32:54.852Z,17.82
2022-10-26T12:35:45.998Z,17.97
2022-10-26T12:39:00.849Z,17.98
2022-10-26T12:41:59.321Z,18.08
2022-10-26T12:45:20.931Z,18.06
2022-10-26T12:48:38.142Z,18.06
2022-10-26T12:51:45.294Z,18.01
2022-10-26T12:54:46.947Z,18.05
2022-10-26T12:57:49.566Z,18.23
2022-10-26T13:00:46.428Z,18.25
2022-10-26T13:03:47.133Z,18.56
2022-10-26T13:06:57.169Z,18.72
2022-10-26T13:09:51.420Z,18.77
2022-10-26T13:12:49.692Z,18.61
2022-10-26T13:15:41.983Z,18.77
2022-10-26T13:18:31.319Z,19.00
2022-10-26T13:21:21.562Z,19.11
2022-10-26T13:24:16.345Z,19.25
2022-10-26T13:27:42.627Z,19.30
2022-10-26T13:30:48.018Z,19.33
2022-10-26T13:33:41.458Z,19.48
2022-10-26T13:36:37.861Z,19.63
2022-10-26T13:39:32.593Z,19.52
2022-10-26T13:42:25.389Z,19.65
2022-10-26T13:45:19.197Z,19.70
2022-10-26T13:48:16.370Z,19.81
2022-10-26T13:51:13.088Z,19.92
2022-10-26T13:54:08.452Z,20.02
2022-10-26T13:57:15.651Z,20.15
2022-10-26T14:00:15.683Z,20.03
2022-10-26T14:03:15.038Z,20.08
2022-10-26T14:06:06.007Z,20.08
2022-10-26T14:08:59.174Z,20.14
2022-10-26T14:11:51.992Z,20.16
2022-10-26T14:14:42.201Z,20.15
2022-10-26T14:17:29.795Z,20.10
2022-10-26T14:20:22.765Z,20.03
2022-10-26T14:23:29.969Z,19.93
2022-10-26T14:26:23.404Z,19.86
2022-10-26T14:29:19.474Z,19.87
2022-10-26T14:32:32.480Z,19.86
2022-10-26T14:35:23.902Z,19.79
2022-10-26T14:38:23.725Z,19.66
2022-10-26T14:41:12.705Z,19.61
2022-10-26T14:44:01.995Z,19.57
2022-10-26T14:46:50.613Z,19.53
2022-10-26T14:49:48.239Z,19.51
2022-10-26T14:52:38.030Z,19.46
2022-10-26T14:55:27.621Z,19.40
2022-10-26T14:58:25.429Z,19.35
2022-10-26T15:01:35.750Z,19.31
2022-10-26T15:04:34.855Z,19.22
2022-10-26T15:07:24.653Z,19.15
2022-10-26T15:10:49.520Z,19.08
2022-10-26T15:13:43.264Z,18.99
2022-10-26T15:16:36.048Z,18.93
2022-10-26T15:19:25.430Z,18.86
2022-10-26T15:22:31.775Z,18.77
2022-10-26T15:25:24.679Z,18.66
2022-10-26T15:28:23.255Z,18.59
2022-10-26T15:31:32.974Z,18.52
2022-10-26T15:34:25.345Z,18.44
2022-10-26T15:37:13.224Z,18.20
2022-10-26T15:40:03.607Z,18.16
2022-10-26T15:42:53.335Z,18.16
2022-10-26T15:45:49.071Z,17.95
2022-10-26T15:48:40.559Z,17.92
2022-10-26T15:51:28.543Z,17.80
2022-10-26T15:54:16.798Z,17.80
2022-10-26T15:59:54.599Z,17.74
2022-10-26T16:02:45.445Z,17.61
2022-10-26T16:05:33.177Z,17.49
2022-10-26T16:08:20.741Z,17.38
2022-10-26T16:11:08.927Z,17.33
2022-10-26T16:14:01.134Z,17.28
2022-10-26T16:16:51.385Z,17.24
2022-10-26T16:19:38.928Z,17.24
2022-10-26T16:22:26.509Z,17.24
2022-10-26T16:25:14.723Z,17.21
2022-10-26T16:28:02.949Z,17.17
2022-10-26T16:30:52.160Z,17.14
2022-10-26T16:33:39.556Z,17.09
2022-10-26T16:36:27.161Z,17.06
2022-10-26T16:39:15.255Z,17.01
2022-10-26T16:42:02.990Z,16.95
2022-10-26T16:44:50.479Z,16.90
2022-10-26T16:47:40.197Z,16.85
2022-10-26T16:50:28.725Z,16.80
2022-10-26T16:53:17.274Z,16.76
2022-10-26T16:56:07.950Z,16.71
2022-10-26T16:58:56.516Z,16.64
2022-10-26T17:01:43.789Z,16.59
2022-10-26T17:04:32.834Z,16.54
2022-10-26T17:07:20.773Z,16.47
2022-10-26T17:10:09.354Z,16.41
2022-10-26T17:12:57.724Z,16.35
2022-10-26T17:15:45.761Z,16.30
2022-10-26T17:19:04.056Z,16.25
2022-10-26T17:21:53.930Z,16.18
2022-10-26T17:24:41.455Z,16.12
2022-10-26T17:27:29.351Z,16.05
2022-10-26T17:30:17.139Z,15.98
2022-10-26T17:33:05.487Z,15.90
2022-10-26T17:35:54.911Z,15.81
2022-10-26T17:38:45.480Z,15.72
2022-10-26T17:41:33.306Z,15.62
2022-10-26T17:44:21.084Z,15.54
2022-10-26T17:47:09.821Z,15.42
2022-10-26T17:49:57.368Z,15.32
2022-10-26T17:52:45.218Z,15.24
2022-10-26T17:55:34.155Z,15.15
2022-10-26T17:58:21.831Z,15.07
2022-10-26T18:01:12.670Z,14.98
2022-10-26T18:04:00.567Z,14.89
2022-10-26T18:06:48.066Z,14.81
2022-10-26T18:09:35.698Z,14.72
2022-10-26T18:12:24.896Z,14.62
2022-10-26T18:15:12.668Z,14.56
2022-10-26T18:18:00.919Z,14.49
2022-10-26T18:20:48.362Z,14.41
2022-10-26T18:23:36.384Z,14.36
2022-10-26T18:26:28.456Z,14.29
2022-10-26T18:29:18.526Z,14.25
2022-10-26T18:32:06.341Z,14.19
2022-10-26T18:34:54.620Z,14.13
2022-10-26T18:37:43.337Z,14.07
2022-10-26T18:40:30.844Z,14.02
2022-10-26T18:43:18.268Z,13.96
2022-10-26T18:46:10.289Z,13.91
2022-10-26T18:49:00.765Z,13.86
2022-10-26T18:51:49.440Z,13.79
2022-10-26T18:54:37.981Z,13.72
2022-10-26T18:57:27.081Z,13.67
2022-10-26T19:00:15.995Z,13.62
2022-10-26T19:03:06.421Z,13.55
2022-10-26T19:05:54.073Z,13.48
2022-10-26T19:08:42.414Z,13.42
2022-10-26T19:11:32.130Z,13.36
2022-10-26T19:14:19.656Z,13.28
2022-10-26T19:17:07.183Z,13.21
2022-10-26T19:19:56.225Z,13.18
2022-10-26T19:22:43.888Z,13.11
2022-10-26T19:25:31.231Z,13.06
2022-10-26T19:28:18.817Z,13.00
2022-10-26T19:31:09.403Z,12.95
2022-10-26T19:33:57.712Z,12.89
2022-10-26T19:36:47.283Z,12.85
2022-10-26T19:39:35.341Z,12.80
2022-10-26T19:42:22.788Z,12.76
2022-10-26T19:45:11.646Z,12.68
2022-10-26T19:47:59.734Z,12.65
2022-10-26T19:50:50.513Z,12.60
2022-10-26T19:53:39.568Z,12.55
2022-10-26T19:56:27.151Z,12.50
2022-10-26T19:59:17.724Z,12.47
2022-10-26T20:02:05.741Z,12.41
2022-10-26T20:04:53.201Z,12.36
2022-10-26T20:07:40.524Z,12.32
2022-10-26T20:10:29.299Z,12.27
2022-10-26T20:13:17.531Z,12.22
2022-10-26T20:16:06.168Z,12.18
2022-10-26T20:18:53.701Z,12.13
2022-10-26T20:21:41.082Z,12.10
2022-10-26T20:24:28.480Z,12.04
2022-10-26T20:27:17.267Z,11.98
2022-10-26T20:30:05.497Z,11.93
2022-10-26T20:32:53.345Z,11.89
2022-10-26T20:35:41.758Z,11.85
2022-10-26T20:38:30.340Z,11.81
2022-10-26T20:41:18.905Z,11.76
2022-10-26T20:44:21.072Z,11.73
2022-10-26T20:47:10.568Z,11.68
2022-10-26T20:49:59.053Z,11.64
2022-10-26T20:52:57.524Z,11.60
2022-10-26T20:55:51.966Z,11.55
2022-10-26T20:58:45.040Z,11.50
2022-10-26T21:01:38.200Z,11.47
2022-10-26T21:04:26.360Z,11.43
2022-10-26T21:07:13.951Z,11.39
2022-10-26T21:10:01.585Z,11.35
2022-10-26T21:12:49.232Z,11.32
2022-10-26T21:15:37.121Z,11.28
2022-10-26T21:18:26.428Z,11.21
2022-10-26T21:21:14.351Z,11.19
2022-10-26T21:24:02.283Z,11.14
2022-10-26T21:26:49.677Z,11.11
2022-10-26T21:29:37.133Z,11.07
2022-10-26T21:32:24.766Z,11.02
2022-10-26T21:35:13.749Z,10.98
2022-10-26T21:38:01.291Z,10.94
2022-10-26T21:40:48.590Z,10.90
2022-10-26T21:43:37.961Z,10.84
2022-10-26T21:46:25.728Z,10.77
2022-10-26T21:49:13.192Z,10.74
2022-10-26T21:52:02.216Z,10.68
2022-10-26T21:54:49.923Z,10.65
2022-10-26T21:57:37.675Z,10.62
2022-10-26T22:00:25.292Z,10.56
2022-10-26T22:03:13.028Z,10.51
2022-10-26T22:06:00.597Z,10.47
2022-10-26T22:08:50.109Z,10.44
2022-10-26T22:11:37.596Z,10.41
2022-10-26T22:14:25.030Z,10.35
2022-10-26T22:17:12.802Z,10.30
2022-10-26T22:20:00.354Z,10.27
2022-10-26T22:22:47.707Z,10.23
2022-10-26T22:25:36.656Z,10.15
2022-10-26T22:28:24.242Z,10.09
2022-10-26T22:31:15.493Z,10.06
2022-10-26T22:34:07.708Z,10.05
2022-10-26T22:36:55.762Z,10.02
2022-10-26T22:39:43.983Z,10.04
2022-10-26T22:42:33.437Z,9.98
2022-10-26T22:45:20.915Z,9.95
2022-10-26T22:51:06.553Z,9.87
2022-10-26T22:53:55.187Z,9.84
2022-10-26T22:56:42.798Z,9.87
2022-10-26T22:59:31.669Z,9.80
2022-10-26T23:02:19.460Z,9.78
2022-10-26T23:05:09.055Z,9.75
2022-10-26T23:07:56.406Z,9.73
2022-10-26T23:10:43.871Z,9.72
2022-10-26T23:13:31.342Z,9.65
2022-10-26T23:16:20.207Z,9.62
2022-10-26T23:19:07.527Z,9.61
2022-10-26T23:21:54.982Z,9.63
2022-10-26T23:24:42.544Z,9.57
2022-10-26T23:27:30.036Z,9.54
2022-10-26T23:30:17.771Z,9.56
2022-10-26T23:33:06.815Z,9.50
2022-10-26T23:35:54.681Z,9.45
2022-10-26T23:38:42.650Z,9.43
2022-10-26T23:41:30.423Z,9.42
2022-10-26T23:44:17.833Z,9.38
2022-10-26T23:47:05.166Z,9.36
2022-10-26T23:49:53.824Z,9.34
2022-10-26T23:52:41.500Z,9.32
2022-10-26T23:55:29.644Z,9.30
2022-10-26T23:58:19.628Z,9.32
